Terminal Aerodrome Forecast
Issued by NWS

Home | Current Version | Previous Version | Text Only | Print | Product List | Glossary On
Versions: 1 2 3 4 5 6 7 8 9 10 11 12 13 14 15 16
521
FTUS42 TJSJ 270535
TAFJPS
TAF
TJPS 270535Z 2706/2806 05005KT P6SM SKC
     FM271300 13010KT P6SM FEW030 FEW060
     FM272300 05005KT P6SM FEW060
      AMD NOT SKED 2712/2803=

USA.gov is the U.S. government's official web portal to all federal, state and local government web resources and services.